Time;durP1;ratioP1;P1;durP2;ratioP2;P2;SDS_P1;SDS_P2;PMS_P1;PMS_P2;Temp;Humidity;BMP_temperature;BMP_pressure;BME280_temperature;BME280_humidity;BME280_pressure;Samples;Min_cycle;Max_cycle;Signal;HPM_P1;HPM_P2
2022/03/11 00:01:21;;;;;;;5.63;4.75;;;4.30;51.10;;;;;;6143675;23;20186;-83
2022/03/11 00:03:48;;;;;;;6.57;5.25;;;4.30;51.60;;;;;;6137344;23;20183;-83
2022/03/11 00:06:16;;;;;;;6.63;6.10;;;4.30;52.20;;;;;;6133855;23;20202;-83
2022/03/11 00:08:43;;;;;;;6.45;5.20;;;4.30;52.40;;;;;;6134468;23;20267;-83
2022/03/11 00:11:10;;;;;;;10.20;6.07;;;4.20;52.70;;;;;;6134365;23;20187;-83
2022/03/11 00:13:37;;;;;;;6.22;5.60;;;4.10;53.00;;;;;;6133900;23;20239;-83
2022/03/11 00:16:04;;;;;;;5.63;4.55;;;4.10;53.40;;;;;;6133445;23;20212;-83
2022/03/11 00:18:31;;;;;;;7.95;5.82;;;4.00;53.50;;;;;;6134010;23;20198;-83
2022/03/11 00:20:57;;;;;;;8.32;7.53;;;4.00;53.80;;;;;;6133214;23;20190;-84
2022/03/11 00:23:25;;;;;;;9.68;6.07;;;4.00;55.00;;;;;;6133727;23;20190;-83
2022/03/11 00:25:52;;;;;;;8.68;6.88;;;3.90;56.20;;;;;;6132807;23;20206;-83
2022/03/11 00:28:19;;;;;;;7.88;6.10;;;3.90;56.10;;;;;;6133599;23;20581;-83
2022/03/11 00:30:46;;;;;;;8.88;7.97;;;3.90;56.20;;;;;;6132684;23;20195;-83
2022/03/11 00:33:12;;;;;;;8.13;7.30;;;3.90;57.30;;;;;;6132798;23;20183;-83
2022/03/11 00:35:39;;;;;;;8.10;7.30;;;4.00;57.90;;;;;;6132500;23;20222;-83
2022/03/11 00:38:06;;;;;;;8.30;7.60;;;4.00;58.30;;;;;;6133033;23;20191;-83
2022/03/11 00:40:34;;;;;;;8.90;8.00;;;4.10;58.70;;;;;;6133584;23;20186;-83
2022/03/11 00:43:01;;;;;;;9.73;7.82;;;4.10;58.90;;;;;;6133300;23;20194;-83
2022/03/11 00:45:28;;;;;;;10.82;9.02;;;4.10;59.10;;;;;;6132699;23;20227;-83
2022/03/11 00:47:54;;;;;;;11.43;8.55;;;4.10;59.30;;;;;;6133823;23;20226;-84
2022/03/11 00:50:22;;;;;;;9.93;8.32;;;4.00;59.30;;;;;;6133531;23;20203;-83
2022/03/11 00:52:48;;;;;;;11.50;8.48;;;4.10;59.70;;;;;;6133639;23;20482;-84
2022/03/11 00:55:15;;;;;;;11.30;8.88;;;4.10;60.00;;;;;;6133502;23;20225;-83
2022/03/11 00:57:43;;;;;;;10.40;9.38;;;4.10;60.60;;;;;;6144270;23;20176;-84
2022/03/11 01:00:12;;;;;;;14.20;9.80;;;4.00;61.00;;;;;;6134479;23;20182;-84
2022/03/11 01:02:40;;;;;;;10.13;8.90;;;4.00;61.40;;;;;;6134805;23;20182;-84
2022/03/11 01:05:08;;;;;;;12.32;9.43;;;4.00;61.70;;;;;;6133827;23;20207;-84
2022/03/11 01:07:35;;;;;;;13.43;9.20;;;4.00;61.60;;;;;;6133069;23;20183;-84
2022/03/11 01:10:02;;;;;;;12.25;9.68;;;4.00;62.80;;;;;;6133330;23;20202;-84
2022/03/11 01:12:29;;;;;;;11.48;9.77;;;4.00;63.00;;;;;;6133281;23;20180;-84
2022/03/11 01:14:57;;;;;;;12.75;10.60;;;3.90;62.80;;;;;;6133148;23;20214;-84
2022/03/11 01:17:24;;;;;;;11.23;10.02;;;3.90;62.60;;;;;;6133712;23;20179;-84
2022/03/11 01:19:50;;;;;;;8.65;7.20;;;3.90;62.10;;;;;;6133107;23;20182;-84
2022/03/11 01:22:17;;;;;;;10.15;8.77;;;3.90;62.10;;;;;;6133119;23;20186;-84
2022/03/11 01:24:44;;;;;;;21.35;9.82;;;3.90;62.00;;;;;;6132023;23;20291;-84
2022/03/11 01:27:11;;;;;;;12.23;8.52;;;3.80;62.20;;;;;;6133662;23;20180;-83
2022/03/11 01:29:37;;;;;;;11.70;10.40;;;3.80;62.60;;;;;;6133031;23;20206;-83
2022/03/11 01:32:06;;;;;;;10.68;8.55;;;3.70;62.80;;;;;;6132653;23;20180;-84
2022/03/11 01:34:33;;;;;;;9.50;8.50;;;3.70;63.00;;;;;;6133347;23;20200;-83
2022/03/11 01:37:00;;;;;;;15.98;9.98;;;3.70;63.40;;;;;;6133793;23;20183;-83
2022/03/11 01:39:27;;;;;;;13.55;9.10;;;3.60;64.40;;;;;;6132992;23;20270;-84
2022/03/11 01:41:53;;;;;;;11.88;9.10;;;3.60;64.80;;;;;;6132286;23;20186;-84
2022/03/11 01:44:20;;;;;;;13.93;11.25;;;3.50;65.50;;;;;;6133786;23;20206;-84
2022/03/11 01:46:47;;;;;;;10.55;9.43;;;3.40;65.60;;;;;;6133490;23;20189;-84
2022/03/11 01:49:15;;;;;;;9.88;8.88;;;3.40;65.60;;;;;;6133064;23;20198;-84
2022/03/11 01:51:43;;;;;;;10.52;9.43;;;3.30;65.80;;;;;;6132805;23;20184;-83
2022/03/11 01:54:11;;;;;;;12.95;8.85;;;3.30;65.80;;;;;;6133183;23;20223;-83
2022/03/11 01:56:39;;;;;;;13.93;9.45;;;3.30;66.00;;;;;;6133273;23;20192;-84
2022/03/11 01:59:07;;;;;;;11.02;9.93;;;3.30;66.60;;;;;;6133017;23;20182;-84
2022/03/11 02:01:33;;;;;;;14.15;10.05;;;3.30;67.00;;;;;;6132181;23;20180;-83
2022/03/11 02:04:01;;;;;;;10.65;9.57;;;3.20;67.20;;;;;;6133264;23;20187;-83
2022/03/11 02:06:30;;;;;;;19.98;10.95;;;3.20;67.60;;;;;;6132255;23;20636;-83
2022/03/11 02:08:59;;;;;;;13.48;9.20;;;3.10;68.00;;;;;;6132920;23;20676;-84
2022/03/11 02:11:26;;;;;;;10.80;9.70;;;3.10;68.30;;;;;;6132088;23;20185;-83
2022/03/11 02:13:55;;;;;;;15.38;9.82;;;3.00;68.70;;;;;;6133527;23;20183;-83
2022/03/11 02:16:24;;;;;;;12.85;10.30;;;3.00;70.00;;;;;;6131914;23;20193;-83
2022/03/11 02:18:51;;;;;;;10.55;9.55;;;2.90;70.30;;;;;;6132996;23;20179;-83
2022/03/11 02:21:20;;;;;;;13.13;9.18;;;2.80;70.80;;;;;;6132342;23;20514;-83
2022/03/11 02:23:49;;;;;;;13.85;10.25;;;2.80;70.90;;;;;;6133221;23;20297;-83
2022/03/11 02:26:18;;;;;;;16.85;12.02;;;2.80;71.30;;;;;;6134738;23;20285;-83
2022/03/11 02:28:45;;;;;;;15.70;12.90;;;2.70;72.40;;;;;;6134897;23;20191;-83
2022/03/11 02:31:12;;;;;;;13.63;11.23;;;2.70;74.10;;;;;;6133955;23;20189;-83
2022/03/11 02:33:39;;;;;;;13.98;12.18;;;2.70;74.10;;;;;;6135857;23;20182;-83
2022/03/11 02:36:06;;;;;;;14.82;11.25;;;2.60;74.50;;;;;;6134537;23;20206;-83
2022/03/11 02:38:34;;;;;;;14.77;11.45;;;2.60;75.10;;;;;;6134733;23;20189;-83
2022/03/11 02:41:03;;;;;;;15.35;11.40;;;2.60;75.10;;;;;;6133669;23;20183;-83
2022/03/11 02:43:29;;;;;;;17.15;12.95;;;2.60;76.10;;;;;;6134251;23;20576;-83
2022/03/11 02:45:56;;;;;;;18.48;12.95;;;2.60;77.40;;;;;;6134943;23;20212;-83
2022/03/11 02:48:23;;;;;;;17.50;14.13;;;2.60;78.30;;;;;;6134975;23;20187;-83
2022/03/11 02:50:50;;;;;;;15.27;13.68;;;2.60;78.90;;;;;;6133356;23;20209;-83
2022/03/11 02:53:17;;;;;;;18.85;12.43;;;2.50;79.30;;;;;;6134415;23;20183;-83
2022/03/11 02:55:44;;;;;;;19.25;14.90;;;2.50;79.80;;;;;;6134589;23;20201;-83
2022/03/11 02:58:12;;;;;;;15.52;13.23;;;2.50;80.50;;;;;;6136905;23;20188;-83
2022/03/11 03:00:39;;;;;;;21.38;13.45;;;2.50;81.00;;;;;;6137113;23;20177;-83
2022/03/11 03:03:06;;;;;;;14.52;12.68;;;2.50;81.10;;;;;;6135694;23;20192;-83
2022/03/11 03:05:32;;;;;;;22.08;14.60;;;2.50;81.50;;;;;;6135100;23;20695;-83
2022/03/11 03:07:59;;;;;;;17.55;14.98;;;2.50;81.50;;;;;;6136681;23;20192;-83
2022/03/11 03:10:26;;;;;;;19.30;12.27;;;2.50;81.80;;;;;;6135463;23;20203;-83
2022/03/11 03:12:53;;;;;;;19.60;15.13;;;2.40;81.90;;;;;;6134491;23;20183;-83
2022/03/11 03:15:21;;;;;;;22.77;13.50;;;2.40;82.30;;;;;;6134248;23;20215;-83
2022/03/11 03:17:48;;;;;;;17.15;13.55;;;2.40;82.50;;;;;;6134969;23;20185;-83
2022/03/11 03:20:16;;;;;;;15.48;13.25;;;2.30;82.80;;;;;;6132983;23;20183;-83
2022/03/11 03:22:43;;;;;;;16.98;13.73;;;2.30;83.30;;;;;;6134199;23;20193;-83
2022/03/11 03:25:10;;;;;;;19.80;13.43;;;2.30;83.50;;;;;;6133797;23;20217;-83
2022/03/11 03:27:37;;;;;;;21.20;13.10;;;2.20;84.10;;;;;;6134094;23;20183;-83
2022/03/11 03:30:05;;;;;;;16.77;14.45;;;2.20;84.60;;;;;;6133605;23;20201;-84
2022/03/11 03:32:33;;;;;;;16.10;14.40;;;2.20;85.20;;;;;;6134232;23;20181;-83
2022/03/11 03:35:00;;;;;;;21.15;14.52;;;2.20;85.40;;;;;;6134655;23;20210;-83
2022/03/11 03:37:27;;;;;;;16.55;14.80;;;2.10;85.70;;;;;;6133458;23;20184;-83
2022/03/11 03:39:54;;;;;;;17.35;14.40;;;2.10;86.20;;;;;;6133390;23;20188;-83
2022/03/11 03:42:20;;;;;;;18.90;14.13;;;2.10;86.50;;;;;;6133535;23;20185;-83
2022/03/11 03:44:47;;;;;;;20.65;12.50;;;2.10;86.50;;;;;;6133936;23;20208;-83
2022/03/11 03:47:14;;;;;;;17.73;13.88;;;2.10;86.70;;;;;;6133734;23;20192;-83
2022/03/11 03:49:42;;;;;;;16.15;13.90;;;2.00;86.90;;;;;;6133638;23;20209;-83
2022/03/11 03:52:11;;;;;;;18.42;14.20;;;2.00;87.30;;;;;;6133902;23;20192;-83
2022/03/11 03:54:39;;;;;;;19.80;14.98;;;2.00;87.40;;;;;;6134248;23;20260;-83
2022/03/11 03:57:06;;;;;;;19.33;13.77;;;2.00;87.80;;;;;;6134082;23;20186;-83
2022/03/11 03:59:33;;;;;;;18.90;15.82;;;1.90;87.70;;;;;;6133991;23;20236;-83
2022/03/11 04:02:00;;;;;;;19.73;14.48;;;1.90;88.20;;;;;;6132855;23;20205;-83
2022/03/11 04:04:26;;;;;;;20.63;14.48;;;1.90;88.50;;;;;;6134222;23;20204;-83
2022/03/11 04:06:55;;;;;;;18.55;15.32;;;1.80;88.50;;;;;;6133784;23;20215;-83
2022/03/11 04:09:21;;;;;;;17.23;15.13;;;1.80;88.50;;;;;;6133844;23;20530;-83
2022/03/11 04:11:48;;;;;;;16.83;13.13;;;1.80;88.70;;;;;;6133193;23;20181;-83
2022/03/11 04:14:15;;;;;;;20.90;14.55;;;1.80;88.70;;;;;;6133428;23;20209;-83
2022/03/11 04:16:41;;;;;;;17.73;14.60;;;1.70;88.80;;;;;;6134050;23;20178;-83
2022/03/11 04:19:08;;;;;;;21.50;14.90;;;1.70;89.00;;;;;;6134128;23;20183;-83
2022/03/11 04:21:35;;;;;;;22.27;14.73;;;1.60;88.90;;;;;;6132941;23;20181;-83
2022/03/11 04:24:12;;;;;;;16.92;15.20;;;1.60;89.90;;;;;;6133845;23;20234;-83
2022/03/11 04:26:40;;;;;;;17.77;13.05;;;1.60;89.40;;;;;;6133981;23;20169;-83
2022/03/11 04:29:07;;;;;;;20.45;16.88;;;1.60;89.50;;;;;;6132758;23;20519;-83
2022/03/11 04:31:33;;;;;;;19.33;14.10;;;1.50;89.40;;;;;;6133092;23;20202;-83
2022/03/11 04:34:00;;;;;;;17.38;14.32;;;1.50;89.50;;;;;;6133901;23;20195;-83
2022/03/11 04:36:28;;;;;;;22.58;13.90;;;1.50;89.70;;;;;;6135642;23;20662;-83
2022/03/11 04:38:55;;;;;;;18.13;14.23;;;1.40;89.80;;;;;;6140144;23;20212;-83
2022/03/11 04:41:23;;;;;;;16.08;13.07;;;1.40;89.90;;;;;;6140497;23;20182;-83
2022/03/11 04:43:50;;;;;;;18.90;13.15;;;1.40;90.00;;;;;;6138450;23;20191;-83
2022/03/11 04:46:17;;;;;;;18.23;15.68;;;1.40;90.00;;;;;;6133540;23;20205;-83
2022/03/11 04:48:47;;;;;;;18.80;14.18;;;1.40;90.00;;;;;;6133682;23;20186;-83
2022/03/11 04:51:14;;;;;;;29.45;17.13;;;1.40;90.00;;;;;;6133325;23;20695;-83
2022/03/11 04:53:41;;;;;;;19.80;13.75;;;1.40;90.10;;;;;;6133451;23;20191;-83
2022/03/11 04:56:08;;;;;;;17.98;14.00;;;1.40;90.00;;;;;;6133455;23;20208;-83
2022/03/11 04:58:36;;;;;;;21.70;14.43;;;1.40;89.90;;;;;;6134267;23;20219;-83
2022/03/11 05:01:03;;;;;;;18.30;13.82;;;1.30;89.90;;;;;;6133408;23;20183;-83
2022/03/11 05:03:29;;;;;;;19.15;15.18;;;1.30;89.60;;;;;;6133839;23;20187;-83
2022/03/11 05:05:56;;;;;;;16.77;12.00;;;1.30;89.80;;;;;;6134240;23;20204;-83
2022/03/11 05:08:23;;;;;;;15.82;12.80;;;1.20;89.70;;;;;;6133370;23;20180;-83
2022/03/11 05:10:50;;;;;;;18.00;12.82;;;1.20;89.70;;;;;;6132258;23;20193;-83
2022/03/11 05:13:16;;;;;;;16.15;13.40;;;1.10;89.60;;;;;;6133137;23;20191;-83
2022/03/11 05:15:45;;;;;;;14.70;13.05;;;1.10;89.50;;;;;;6085206;23;20224;-78
2022/03/11 05:18:12;;;;;;;21.35;13.30;;;1.10;89.20;;;;;;6130850;23;20176;-79
2022/03/11 05:20:39;;;;;;;17.85;13.88;;;1.10;89.10;;;;;;6125756;23;20572;-78
2022/03/11 05:23:06;;;;;;;18.70;14.45;;;1.10;89.10;;;;;;6127456;23;20196;-78
2022/03/11 05:25:32;;;;;;;17.27;12.95;;;1.10;89.10;;;;;;6134706;23;20258;-78
2022/03/11 05:27:59;;;;;;;16.83;13.15;;;1.10;89.00;;;;;;6137471;23;20182;-77
2022/03/11 05:30:26;;;;;;;18.20;13.30;;;1.10;88.60;;;;;;6128776;23;20210;-78
2022/03/11 05:32:54;;;;;;;19.77;11.93;;;1.10;88.30;;;;;;6125411;23;20192;-78
2022/03/11 05:35:21;;;;;;;16.83;12.63;;;1.00;89.00;;;;;;6125307;23;20202;-78
2022/03/11 05:37:48;;;;;;;14.18;12.70;;;1.00;88.40;;;;;;6124960;23;20664;-78
2022/03/11 05:40:15;;;;;;;14.18;12.18;;;1.00;88.20;;;;;;6124402;23;20522;-78
2022/03/11 05:42:42;;;;;;;16.65;11.48;;;1.00;87.80;;;;;;6124702;23;20705;-78
2022/03/11 05:45:10;;;;;;;16.85;11.95;;;1.00;87.30;;;;;;6124116;23;20256;-78
2022/03/11 05:47:38;;;;;;;15.75;12.90;;;0.90;86.70;;;;;;6124764;23;20278;-78
2022/03/11 05:50:07;;;;;;;17.67;11.23;;;0.90;86.30;;;;;;6124805;23;20565;-78
2022/03/11 05:52:37;;;;;;;11.38;10.20;;;0.90;85.80;;;;;;6124277;23;20188;-78
2022/03/11 05:55:04;;;;;;;16.02;11.73;;;0.90;85.30;;;;;;6124742;23;20588;-78
2022/03/11 05:57:31;;;;;;;18.83;11.75;;;0.90;85.10;;;;;;6125027;23;20491;-78
2022/03/11 05:59:58;;;;;;;13.20;10.98;;;0.90;84.80;;;;;;6126184;23;20208;-78
2022/03/11 06:02:25;;;;;;;13.43;9.05;;;1.00;84.40;;;;;;6126082;23;20502;-79
2022/03/11 06:04:52;;;;;;;12.52;10.20;;;1.00;83.80;;;;;;6126329;23;20229;-78
2022/03/11 06:07:20;;;;;;;13.65;11.25;;;1.00;83.30;;;;;;6127129;23;20188;-78
2022/03/11 06:09:47;;;;;;;12.10;9.77;;;1.00;83.20;;;;;;6126311;23;20182;-78
2022/03/11 06:12:15;;;;;;;16.30;10.65;;;1.00;83.00;;;;;;6125782;23;20180;-78
2022/03/11 06:14:41;;;;;;;13.23;10.75;;;1.00;83.10;;;;;;6126787;23;20200;-78
2022/03/11 06:17:08;;;;;;;13.77;10.48;;;1.00;83.00;;;;;;6126590;23;20194;-78
2022/03/11 06:19:35;;;;;;;18.25;10.75;;;1.00;82.70;;;;;;6126702;23;20505;-78
2022/03/11 06:22:02;;;;;;;14.45;10.75;;;1.00;82.70;;;;;;6125874;23;20758;-78
2022/03/11 06:24:30;;;;;;;14.13;12.73;;;1.10;82.50;;;;;;6131688;23;20189;-79
2022/03/11 06:26:57;;;;;;;10.18;9.10;;;1.10;82.10;;;;;;6132283;23;20181;-79
2022/03/11 06:29:24;;;;;;;15.90;11.65;;;1.10;81.50;;;;;;6133995;23;20187;-79
2022/03/11 06:31:51;;;;;;;11.05;9.15;;;1.10;81.20;;;;;;6133679;23;20179;-79
2022/03/11 06:34:18;;;;;;;13.82;10.43;;;1.20;81.00;;;;;;6130926;23;20180;-79
2022/03/11 06:36:45;;;;;;;10.90;9.25;;;1.20;80.90;;;;;;6131246;23;20186;-79
2022/03/11 06:39:13;;;;;;;12.93;10.32;;;1.20;80.10;;;;;;6130165;23;20193;-79
2022/03/11 06:41:42;;;;;;;10.27;9.15;;;1.30;79.30;;;;;;6130984;23;20273;-80
2022/03/11 06:44:08;;;;;;;9.27;7.72;;;1.30;78.90;;;;;;6133070;23;20192;-79
2022/03/11 06:46:35;;;;;;;12.98;8.55;;;1.40;79.10;;;;;;6134456;23;20279;-79
2022/03/11 06:49:03;;;;;;;14.68;9.50;;;1.40;82.60;;;;;;6134382;23;20200;-79
2022/03/11 06:51:30;;;;;;;14.13;8.32;;;1.50;80.70;;;;;;6133306;23;20182;-79
2022/03/11 06:53:56;;;;;;;14.60;10.32;;;1.60;78.70;;;;;;6134245;23;20269;-79
2022/03/11 06:56:23;;;;;;;11.45;8.60;;;1.70;77.70;;;;;;6133540;23;20285;-79
2022/03/11 06:58:51;;;;;;;10.95;8.90;;;1.80;76.20;;;;;;6133485;23;20196;-79
2022/03/11 07:01:18;;;;;;;13.00;10.20;;;1.80;75.00;;;;;;6133575;23;20199;-79
2022/03/11 07:03:45;;;;;;;13.85;9.13;;;1.80;74.20;;;;;;6133260;23;20182;-79
2022/03/11 07:06:12;;;;;;;11.88;7.10;;;1.80;73.50;;;;;;6132177;23;20262;-79
2022/03/11 07:08:39;;;;;;;9.38;6.72;;;1.90;73.30;;;;;;6132745;23;20196;-79
2022/03/11 07:11:06;;;;;;;10.55;8.45;;;1.90;74.80;;;;;;6131397;23;20182;-79
2022/03/11 07:13:34;;;;;;;10.85;7.68;;;1.90;74.20;;;;;;6131848;23;20193;-79
2022/03/11 07:16:02;;;;;;;11.95;7.95;;;2.00;73.40;;;;;;6132514;23;20211;-79
2022/03/11 07:18:28;;;;;;;10.80;6.93;;;2.00;72.50;;;;;;6133257;23;20167;-79
2022/03/11 07:20:55;;;;;;;9.65;8.27;;;2.10;72.40;;;;;;6132797;23;20340;-79
2022/03/11 07:23:22;;;;;;;10.18;7.95;;;2.10;71.60;;;;;;6132421;23;20665;-79
2022/03/11 07:25:50;;;;;;;8.90;7.22;;;2.20;71.20;;;;;;6132733;23;20538;-79
2022/03/11 07:28:17;;;;;;;9.82;7.35;;;2.20;70.20;;;;;;6133450;23;20214;-79
2022/03/11 07:30:43;;;;;;;8.70;7.55;;;2.30;70.00;;;;;;6133360;23;20166;-79
2022/03/11 07:33:12;;;;;;;7.13;6.43;;;2.30;70.40;;;;;;6131849;23;20631;-79
2022/03/11 07:35:39;;;;;;;9.75;7.03;;;2.40;71.20;;;;;;6129891;23;20212;-79
2022/03/11 07:38:06;;;;;;;7.93;7.18;;;2.50;70.50;;;;;;6130316;23;20667;-79
2022/03/11 07:40:33;;;;;;;9.85;8.10;;;2.60;71.00;;;;;;6128327;23;20851;-79
2022/03/11 07:43:00;;;;;;;12.52;7.95;;;2.80;70.30;;;;;;6130001;23;20183;-79
2022/03/11 07:45:27;;;;;;;10.20;7.40;;;2.90;70.30;;;;;;6129696;23;20762;-79
2022/03/11 07:47:54;;;;;;;12.07;8.45;;;3.00;70.10;;;;;;6129771;23;20172;-80
2022/03/11 07:50:22;;;;;;;10.23;8.27;;;3.20;69.50;;;;;;6128963;23;20183;-80
2022/03/11 07:52:49;;;;;;;10.52;8.10;;;3.40;69.40;;;;;;6131069;23;20654;-80
2022/03/11 07:55:16;;;;;;;8.98;7.97;;;3.50;68.60;;;;;;6130134;23;20213;-80
2022/03/11 07:57:43;;;;;;;10.20;8.00;;;3.60;68.50;;;;;;6130785;23;20950;-80
2022/03/11 08:00:11;;;;;;;10.70;8.23;;;3.80;68.00;;;;;;6130452;23;20180;-80
2022/03/11 08:02:39;;;;;;;8.82;8.10;;;3.90;66.40;;;;;;6129250;23;20179;-80
2022/03/11 08:05:14;;;;;;;12.30;8.05;;;3.90;65.70;;;;;;6129129;23;20232;-79
2022/03/11 08:07:44;;;;;;;8.60;7.70;;;4.00;65.50;;;;;;6129748;23;20206;-80
2022/03/11 08:10:11;;;;;;;9.75;8.55;;;4.00;64.60;;;;;;6129065;23;20170;-80
2022/03/11 08:12:38;;;;;;;10.25;9.35;;;4.00;64.80;;;;;;6129416;23;20186;-79
2022/03/11 08:15:06;;;;;;;10.48;8.63;;;4.00;64.90;;;;;;6129058;23;20202;-80
2022/03/11 08:17:32;;;;;;;9.30;7.70;;;4.00;65.40;;;;;;6129577;23;20738;-80
2022/03/11 08:20:05;;;;;;;12.60;9.63;;;4.00;65.80;;;;;;6128962;23;20183;-80
2022/03/11 08:22:35;;;;;;;12.45;9.07;;;4.10;66.00;;;;;;6128635;23;20190;-80
2022/03/11 08:27:40;;;;;;;13.80;8.77;;;4.10;66.20;;;;;;6129226;23;20194;-80
2022/03/11 08:30:09;;;;;;;11.40;8.73;;;4.10;66.00;;;;;;6129003;23;20183;-80
2022/03/11 08:32:36;;;;;;;14.70;11.05;;;4.20;66.10;;;;;;6129295;23;20184;-80
2022/03/11 08:35:06;;;;;;;12.10;9.40;;;4.20;66.10;;;;;;6128568;23;20199;-80
2022/03/11 08:37:33;;;;;;;12.20;9.93;;;4.20;65.90;;;;;;6127382;23;20168;-79
2022/03/11 08:40:00;;;;;;;13.30;10.00;;;4.30;66.60;;;;;;6127102;23;20184;-79
2022/03/11 08:42:27;;;;;;;13.38;10.20;;;4.50;66.10;;;;;;6127325;23;20252;-80
2022/03/11 08:44:55;;;;;;;15.80;10.13;;;4.60;65.90;;;;;;6127546;23;20208;-80
2022/03/11 08:47:22;;;;;;;11.77;9.75;;;4.70;66.10;;;;;;6127130;23;20262;-79
2022/03/11 08:49:49;;;;;;;10.32;9.32;;;4.80;65.20;;;;;;6127390;23;20183;-80
2022/03/11 08:52:16;;;;;;;12.32;10.38;;;5.00;65.90;;;;;;6127257;23;20179;-80
2022/03/11 08:54:43;;;;;;;11.50;9.30;;;5.10;65.20;;;;;;6127289;23;20221;-80
2022/03/11 08:57:09;;;;;;;12.57;11.27;;;5.20;64.90;;;;;;6127324;23;20191;-79
2022/03/11 08:59:36;;;;;;;13.73;11.95;;;5.30;64.60;;;;;;6127325;23;20184;-79
2022/03/11 09:02:07;;;;;;;12.45;10.93;;;5.30;64.20;;;;;;6127250;23;20203;-79
2022/03/11 09:04:33;;;;;;;12.98;10.13;;;5.40;63.80;;;;;;6127075;23;20247;-80
2022/03/11 09:07:00;;;;;;;14.25;10.70;;;5.40;63.50;;;;;;6127259;23;20180;-79
2022/03/11 09:09:27;;;;;;;15.32;9.98;;;5.50;64.00;;;;;;6127447;23;20223;-80
2022/03/11 09:11:54;;;;;;;17.92;9.95;;;5.60;64.10;;;;;;6126950;23;20203;-80
2022/03/11 09:14:20;;;;;;;13.30;11.45;;;5.60;63.90;;;;;;6127078;23;20179;-80
2022/03/11 09:16:47;;;;;;;18.98;9.80;;;5.80;63.00;;;;;;6127722;23;20186;-80
2022/03/11 09:19:15;;;;;;;13.48;10.77;;;5.90;63.30;;;;;;6129119;23;20183;-80
2022/03/11 09:21:42;;;;;;;11.90;10.18;;;6.10;63.20;;;;;;6126850;23;20202;-80
2022/03/11 09:24:09;;;;;;;11.60;9.57;;;6.20;63.00;;;;;;6128000;23;20549;-80
2022/03/11 09:26:36;;;;;;;11.25;10.13;;;6.30;61.60;;;;;;6126590;23;20722;-80
2022/03/11 09:29:03;;;;;;;10.00;8.82;;;6.40;61.20;;;;;;6126937;23;20210;-79
2022/03/11 09:31:30;;;;;;;14.18;10.43;;;6.40;60.80;;;;;;6126507;23;20662;-79
2022/03/11 09:33:57;;;;;;;11.20;9.85;;;6.50;60.70;;;;;;6128433;23;20190;-80
2022/03/11 09:36:25;;;;;;;14.70;10.23;;;6.70;60.60;;;;;;6129302;23;20203;-79
2022/03/11 09:38:52;;;;;;;11.43;8.85;;;6.80;59.70;;;;;;6128977;23;20211;-80
2022/03/11 09:41:21;;;;;;;9.82;7.68;;;6.90;59.10;;;;;;6128992;23;20531;-80
2022/03/11 09:43:47;;;;;;;10.05;7.90;;;7.00;58.60;;;;;;6129437;23;20191;-80
2022/03/11 09:46:15;;;;;;;12.88;8.55;;;7.20;58.40;;;;;;6128711;23;20204;-80
2022/03/11 09:48:43;;;;;;;10.70;9.27;;;7.30;57.90;;;;;;6129053;23;20515;-79
2022/03/11 09:51:11;;;;;;;12.48;8.40;;;7.40;57.30;;;;;;6128452;23;20178;-80
2022/03/11 09:53:42;;;;;;;12.80;7.85;;;7.50;57.70;;;;;;6128870;23;20183;-79
2022/03/11 09:56:08;;;;;;;8.90;8.00;;;7.60;56.30;;;;;;6130468;23;20204;-79
2022/03/11 09:58:35;;;;;;;10.30;7.95;;;7.70;56.00;;;;;;6141680;23;20184;-80
2022/03/11 10:01:03;;;;;;;12.35;10.15;;;7.80;56.30;;;;;;6142109;23;20185;-79
2022/03/11 10:03:30;;;;;;;8.67;7.87;;;7.80;55.10;;;;;;6132072;23;20180;-80
2022/03/11 10:05:57;;;;;;;9.35;8.18;;;7.80;54.80;;;;;;6129630;23;20439;-80
2022/03/11 10:08:32;;;;;;;9.02;7.75;;;8.00;55.40;;;;;;6133091;23;20180;-80
2022/03/11 10:11:20;;;;;;;8.05;7.25;;;8.10;54.90;;;;;;6142126;23;20191;-80
2022/03/11 10:13:47;;;;;;;9.23;8.30;;;8.20;54.60;;;;;;6141608;23;20267;-80
2022/03/11 10:16:18;;;;;;;11.38;9.55;;;8.40;54.50;;;;;;6129278;23;20201;-80
2022/03/11 10:18:56;;;;;;;10.82;7.95;;;8.50;53.90;;;;;;6129360;23;20190;-80
2022/03/11 10:21:28;;;;;;;10.70;7.50;;;8.50;54.20;;;;;;6137467;23;20197;-80
2022/03/11 10:23:55;;;;;;;9.07;7.80;;;8.70;53.50;;;;;;6142168;23;20731;-80
2022/03/11 10:26:34;;;;;;;12.23;9.07;;;8.90;53.70;;;;;;6136707;23;20207;-80
2022/03/11 10:29:02;;;;;;;9.33;8.20;;;9.10;52.90;;;;;;6129438;23;20184;-80
2022/03/11 10:31:33;;;;;;;11.83;9.63;;;9.10;53.10;;;;;;6129402;23;20408;-80
2022/03/11 10:34:17;;;;;;;11.10;8.60;;;9.30;52.50;;;;;;6129191;23;20421;-80
2022/03/11 10:36:52;;;;;;;13.37;11.30;;;9.50;52.40;;;;;;6129207;23;20402;-80
2022/03/11 10:39:20;;;;;;;8.98;8.10;;;9.70;51.90;;;;;;6129574;23;20377;-79
2022/03/11 10:41:50;;;;;;;9.70;8.70;;;9.80;52.20;;;;;;6128899;23;20215;-80
2022/03/11 10:44:22;;;;;;;10.60;7.70;;;9.90;51.80;;;;;;6128527;23;20787;-80
2022/03/11 10:46:48;;;;;;;8.73;7.83;;;10.20;50.40;;;;;;6128723;23;20441;-80
2022/03/11 10:49:25;;;;;;;8.77;8.03;;;10.30;49.60;;;;;;6129179;23;20409;-80
2022/03/11 10:51:53;;;;;;;8.03;7.23;;;10.50;50.20;;;;;;6128388;23;20462;-80
2022/03/11 10:54:25;;;;;;;13.50;9.17;;;10.70;50.20;;;;;;6128037;23;20750;-80
2022/03/11 10:56:53;;;;;;;10.80;8.20;;;11.00;50.30;;;;;;6128708;23;20402;-80
2022/03/11 10:59:28;;;;;;;11.33;8.13;;;11.30;49.70;;;;;;6128398;23;20805;-80
2022/03/11 11:01:57;;;;;;;10.70;8.40;;;11.50;48.30;;;;;;6128716;23;20446;-80
2022/03/11 11:04:24;;;;;;;10.57;8.47;;;11.70;47.40;;;;;;6128719;23;20465;-80
2022/03/11 11:06:52;;;;;;;8.57;7.77;;;11.90;47.40;;;;;;6128610;23;20393;-80
2022/03/11 11:09:22;;;;;;;9.43;8.33;;;12.20;46.90;;;;;;6128120;23;20419;-80
2022/03/11 11:11:49;;;;;;;10.27;8.77;;;12.50;46.30;;;;;;6128220;23;20420;-80
2022/03/11 11:14:17;;;;;;;9.07;7.00;;;13.10;46.70;;;;;;6128629;23;20414;-80
2022/03/11 11:16:48;;;;;;;10.50;8.63;;;13.60;45.90;;;;;;6136069;23;20451;-84
2022/03/11 11:19:17;;;;;;;9.60;8.53;;;14.40;44.60;;;;;;6138514;23;20476;-84
2022/03/11 11:21:45;;;;;;;10.60;9.50;;;14.80;43.20;;;;;;6138173;23;20448;-84
2022/03/11 11:24:16;;;;;;;12.43;9.50;;;14.90;42.00;;;;;;6138695;23;20415;-84
2022/03/11 11:26:47;;;;;;;9.50;8.60;;;15.20;42.50;;;;;;6138588;23;20441;-84
2022/03/11 11:29:17;;;;;;;11.33;9.40;;;15.90;41.20;;;;;;6139653;23;20409;-84
2022/03/11 11:31:46;;;;;;;14.17;9.97;;;16.50;40.70;;;;;;6139112;23;20869;-84
2022/03/11 11:34:26;;;;;;;10.50;9.50;;;16.90;40.70;;;;;;6138792;23;20414;-84
2022/03/11 11:36:53;;;;;;;10.30;9.07;;;17.60;39.40;;;;;;6138937;23;20434;-84
2022/03/11 11:39:20;;;;;;;10.60;9.50;;;18.20;37.60;;;;;;6139636;23;20407;-84
2022/03/11 11:41:53;;;;;;;11.40;10.30;;;18.30;37.90;;;;;;6142911;23;20507;-83
2022/03/11 11:44:30;;;;;;;10.70;9.70;;;18.50;36.60;;;;;;6143517;23;20458;-84
2022/03/11 11:47:10;;;;;;;11.93;10.80;;;18.40;36.10;;;;;;6138717;23;20614;-84
2022/03/11 11:49:42;;;;;;;11.23;10.00;;;18.50;36.80;;;;;;6137058;23;20422;-84
2022/03/11 11:52:11;;;;;;;10.80;9.10;;;19.20;36.40;;;;;;6137317;23;20395;-84
2022/03/11 11:54:47;;;;;;;12.70;11.37;;;19.90;36.40;;;;;;6137279;23;20483;-84
2022/03/11 11:57:25;;;;;;;11.10;10.10;;;20.40;34.90;;;;;;6137162;23;20464;-84
2022/03/11 11:59:52;;;;;;;12.60;10.27;;;20.50;34.70;;;;;;6137271;23;20405;-84
2022/03/11 12:02:34;;;;;;;10.60;9.37;;;21.20;34.90;;;;;;6137797;23;20444;-85
2022/03/11 12:05:01;;;;;;;12.57;11.27;;;21.50;33.40;;;;;;6137195;23;20431;-84
2022/03/11 12:07:48;;;;;;;12.57;11.20;;;21.70;31.80;;;;;;6136934;23;20482;-85
2022/03/11 12:10:24;;;;;;;12.60;11.40;;;22.40;32.90;;;;;;6137916;23;20406;-85
2022/03/11 12:13:00;;;;;;;10.80;9.70;;;22.40;31.40;;;;;;6138258;23;20432;-84
2022/03/11 12:15:32;;;;;;;11.93;10.83;;;22.80;32.00;;;;;;6136926;23;20530;-84
2022/03/11 12:18:00;;;;;;;11.57;10.37;;;23.20;30.80;;;;;;6137022;23;20416;-84
2022/03/11 12:20:33;;;;;;;11.93;10.87;;;23.70;30.10;;;;;;6137173;23;20408;-84
2022/03/11 12:23:01;;;;;;;11.60;10.50;;;23.90;29.80;;;;;;6138590;23;20400;-84
2022/03/11 12:25:30;;;;;;;11.90;10.57;;;23.40;29.50;;;;;;6137950;23;20517;-84
2022/03/11 12:28:05;;;;;;;12.80;9.33;;;23.20;30.10;;;;;;6136956;23;20735;-84
2022/03/11 12:30:33;;;;;;;11.53;10.43;;;23.40;30.30;;;;;;6137779;23;20395;-85
2022/03/11 12:33:03;;;;;;;12.00;10.80;;;24.10;29.70;;;;;;6139587;23;20460;-84
2022/03/11 12:35:30;;;;;;;11.17;10.20;;;24.60;29.30;;;;;;6138563;23;20754;-85
2022/03/11 12:37:57;;;;;;;12.87;11.57;;;25.20;29.30;;;;;;6140166;23;20412;-84
2022/03/11 12:40:25;;;;;;;11.67;10.57;;;24.80;28.70;;;;;;6138291;23;20931;-85
2022/03/11 12:42:59;;;;;;;11.77;10.40;;;25.10;28.70;;;;;;6139629;23;20938;-85
2022/03/11 12:45:36;;;;;;;12.53;11.37;;;25.40;28.60;;;;;;6140541;23;20496;-85
2022/03/11 12:48:05;;;;;;;13.70;11.20;;;25.40;27.90;;;;;;6138961;23;20452;-85
2022/03/11 12:50:31;;;;;;;12.17;11.00;;;25.90;28.00;;;;;;6139545;23;20479;-85